Peterborough Airport
CYPQ : now visible

Aeroporto :











RITROVATECI SU...

 
LOGIN :

Iscrizione | Disclaimer

   EN    FR    IT 

 









Sommario :    VFR   VFR Marginale   IFR   IFR Intensivo   IFR Molto Intensivo
Visibilità : 
Base nubi : 
>= 8 km
>= 3000ft
5 / 8 km
1000 / 3000 ft
1500m / 5 km
500 / 1000 ft
800 / 1500m
200 / 500 ft
< 800m
< 200 ft
Simboli :   Temporali  Nebbia  Neve Forte  Precipitazioni Forti  Vento > 20 kt






- Altitudine del aeroporto : 628 ft
- Codice IATA : YPQ


CYPQ - Peterborough

ULTIMO METAR :
  • 191100Z AUTO 00000KT 1/2SM FZFG VV001 M03/M03 A3008 RMK SLP195

METARs OBSOLETI :
  • 191039Z AUTO 00000KT 1/2SM FZFG VV001 M03/M03 A3007 RMK SLP192
  • 191033Z AUTO 00000KT 1 1/4SM BR OVC002 M03/M03 A3007 RMK SLP191
  • 191027Z AUTO 20002KT 2 1/2SM BR OVC002 M03/M03 A3007 RMK SLP190
  • 191010Z AUTO 00000KT 5/8SM BR VV002 M03/M03 A3007 RMK SLP190
  • 190907Z AUTO 00000KT 1/2SM FZFG VV002 M03/M03 A3006 RMK SLP187
  • 190851Z AUTO 00000KT 1 1/4SM BR OVC003 M03/M03 A3005 RMK SLP186

TAF TAF CYPQ
Valido dal 19 a 10 ore il 19 a 22 ore UTC


190938Z 1910/1922 VRB03KT 6SM BR FEW002
TEMPO 1910/1914 1/2SM FZFG VV002
FM191400 VRB03KT P6SM SKC
BECMG 1914/1916 10005KT
BECMG 1916/1918 15006KT RMK FCST BASED ON AUTO OBS. NXT FCST BY 191400Z



MetMap, La meteo Aeronautica in un colpo d'occhio ! - Copyright ORBIFLY Dicembre 2007 - Disclaimer

ORBIFLY MET'MAP TEAM :

Programmazione e sviluppo : Alexandra Zaïnal
Concezione e sviluppo : Baudouin d'Aumeries
Co-Programmazione e sviluppo : Marc-Olivier Méhu
Supporto tecnico e logistico : Manuel Goepfert
Aiuto per la traduzione : Arnaldo La Scala

Contatto : metmap@orbifly.com




FONTI E CREDITI :

   NOAA       Earth
Advisory